Time;durP1;ratioP1;P1;durP2;ratioP2;P2;SDS_P1;SDS_P2;PMS_P1;PMS_P2;Temp;Humidity;BMP_temperature;BMP_pressure;BME280_temperature;BME280_humidity;BME280_pressure;Samples;Min_cycle;Max_cycle;Signal;HPM_P1;HPM_P2
2022/08/28 00:00:04;;;;;;;12.80;5.32;;;;;;;;;;5065194;28;20436;-81
2022/08/28 00:02:32;;;;;;;14.75;5.55;;;;;;;;;;5062042;28;20425;-80
2022/08/28 00:05:00;;;;;;;12.02;5.82;;;;;;;;;;5046872;28;20536;-80
2022/08/28 00:07:30;;;;;;;14.15;6.05;;;;;;;;;;5063020;28;20420;-84
2022/08/28 00:09:56;;;;;;;17.00;5.53;;;;;;;;;;5048455;28;20424;-80
2022/08/28 00:12:23;;;;;;;14.00;6.30;;;;;;;;;;5063325;28;20412;-80
2022/08/28 00:14:52;;;;;;;16.45;5.45;;;;;;;;;;5061659;28;20431;-81
2022/08/28 00:17:19;;;;;;;13.68;5.13;;;;;;;;;;5062781;28;20447;-82
2022/08/28 00:19:48;;;;;;;14.77;5.70;;;;;;;;;;5061966;28;20436;-80
2022/08/28 00:22:15;;;;;;;13.30;5.70;;;;;;;;;;5062288;28;20422;-79
2022/08/28 00:24:43;;;;;;;15.70;5.80;;;;;;;;;;5066382;28;20425;-80
2022/08/28 00:30:02;;;;;;;15.15;5.75;;;;;;;;;;5065443;28;20474;-79
2022/08/28 00:32:28;;;;;;;11.48;5.28;;;;;;;;;;5062088;28;20433;-80
2022/08/28 00:34:56;;;;;;;13.70;5.35;;;;;;;;;;5062977;28;20421;-80
2022/08/28 00:37:23;;;;;;;13.23;5.10;;;;;;;;;;5062715;28;20456;-80
2022/08/28 00:39:51;;;;;;;10.35;5.30;;;;;;;;;;5064362;28;21034;-79
2022/08/28 00:42:18;;;;;;;10.87;4.87;;;;;;;;;;5076530;28;21012;-80
2022/08/28 00:44:46;;;;;;;11.23;4.93;;;;;;;;;;5084452;28;20427;-80
2022/08/28 00:47:13;;;;;;;10.95;5.30;;;;;;;;;;5082496;28;20534;-80
2022/08/28 00:49:45;;;;;;;12.87;5.13;;;;;;;;;;5082658;28;20418;-82
2022/08/28 00:52:14;;;;;;;11.80;4.85;;;;;;;;;;5051138;28;20471;-79
2022/08/28 00:54:42;;;;;;;12.23;5.32;;;;;;;;;;5083717;28;20427;-80
2022/08/28 00:57:10;;;;;;;11.75;4.95;;;;;;;;;;5084596;28;20420;-80
2022/08/28 00:59:38;;;;;;;9.63;4.18;;;;;;;;;;5085505;28;20502;-80
2022/08/28 01:02:05;;;;;;;11.30;5.10;;;;;;;;;;5080539;28;20423;-81
2022/08/28 01:04:35;;;;;;;9.30;4.40;;;;;;;;;;5080872;28;20809;-80
2022/08/28 01:07:05;;;;;;;13.57;5.00;;;;;;;;;;5081263;28;20438;-81
2022/08/28 01:09:33;;;;;;;11.07;5.10;;;;;;;;;;5081317;28;20439;-80
2022/08/28 01:12:02;;;;;;;10.98;4.80;;;;;;;;;;5082777;28;20918;-80
2022/08/28 01:14:30;;;;;;;13.57;4.70;;;;;;;;;;5082766;28;20938;-80
2022/08/28 01:16:57;;;;;;;9.00;4.37;;;;;;;;;;5079128;28;20939;-79
2022/08/28 01:19:28;;;;;;;10.23;4.47;;;;;;;;;;5082261;28;20508;-79
2022/08/28 01:21:58;;;;;;;12.82;5.50;;;;;;;;;;5064317;28;20430;-79
2022/08/28 01:24:26;;;;;;;10.25;4.55;;;;;;;;;;5084790;28;20550;-79
2022/08/28 01:26:52;;;;;;;12.40;4.70;;;;;;;;;;5047171;28;20416;-80
2022/08/28 01:29:19;;;;;;;8.43;4.20;;;;;;;;;;5092547;28;20415;-80
2022/08/28 01:31:47;;;;;;;16.75;4.95;;;;;;;;;;5081230;28;20433;-79
2022/08/28 01:34:13;;;;;;;9.57;4.10;;;;;;;;;;5082901;28;20503;-79
2022/08/28 01:36:40;;;;;;;12.75;4.93;;;;;;;;;;5081608;28;20433;-80
2022/08/28 01:39:09;;;;;;;10.98;5.20;;;;;;;;;;5083877;28;20429;-79
2022/08/28 01:41:41;;;;;;;11.77;5.10;;;;;;;;;;5082691;28;20410;-80
2022/08/28 01:44:08;;;;;;;9.77;5.10;;;;;;;;;;5083140;28;20429;-79
2022/08/28 01:46:37;;;;;;;20.45;6.25;;;;;;;;;;5061470;28;20410;-81
2022/08/28 01:49:04;;;;;;;11.90;5.40;;;;;;;;;;5081407;28;20429;-80
2022/08/28 01:51:30;;;;;;;11.65;4.75;;;;;;;;;;5080919;28;20946;-80
2022/08/28 01:53:56;;;;;;;14.53;6.17;;;;;;;;;;5082550;28;20471;-80
2022/08/28 01:56:23;;;;;;;12.85;5.85;;;;;;;;;;5081692;28;20487;-80
2022/08/28 01:58:51;;;;;;;13.40;5.65;;;;;;;;;;5080464;28;20426;-80
2022/08/28 02:01:19;;;;;;;15.75;5.55;;;;;;;;;;5081174;28;20417;-79
2022/08/28 02:03:46;;;;;;;10.90;5.22;;;;;;;;;;5083358;28;20432;-80
2022/08/28 02:06:13;;;;;;;13.05;5.32;;;;;;;;;;5081435;28;20923;-80
2022/08/28 02:08:40;;;;;;;12.45;5.10;;;;;;;;;;5082253;28;20427;-79
2022/08/28 02:11:07;;;;;;;12.52;5.10;;;;;;;;;;5083451;28;20422;-80
2022/08/28 02:13:35;;;;;;;12.40;5.25;;;;;;;;;;5084238;28;20469;-80
2022/08/28 02:16:03;;;;;;;10.80;4.60;;;;;;;;;;5081238;28;20419;-81
2022/08/28 02:18:30;;;;;;;11.83;4.57;;;;;;;;;;5082035;28;20522;-79
2022/08/28 02:20:57;;;;;;;8.18;5.00;;;;;;;;;;5082549;28;20432;-80
2022/08/28 02:23:23;;;;;;;11.80;5.35;;;;;;;;;;5080713;28;20515;-79
2022/08/28 02:25:50;;;;;;;13.55;4.68;;;;;;;;;;5081545;28;20435;-79
2022/08/28 02:28:16;;;;;;;14.60;5.40;;;;;;;;;;5049736;28;20431;-78
2022/08/28 02:30:42;;;;;;;11.90;4.65;;;;;;;;;;5082633;28;20440;-80
2022/08/28 02:33:10;;;;;;;10.88;4.80;;;;;;;;;;5081079;28;20437;-81
2022/08/28 02:35:39;;;;;;;10.98;4.85;;;;;;;;;;5087352;28;20438;-80
2022/08/28 02:38:08;;;;;;;11.82;4.07;;;;;;;;;;5084155;28;20467;-82
2022/08/28 02:40:35;;;;;;;8.68;4.68;;;;;;;;;;5084550;28;20466;-80
2022/08/28 02:43:02;;;;;;;14.10;4.93;;;;;;;;;;5084481;28;20427;-79
2022/08/28 02:45:28;;;;;;;13.85;4.60;;;;;;;;;;5066829;28;20442;-80
2022/08/28 02:47:55;;;;;;;17.17;6.20;;;;;;;;;;5081853;28;20453;-80
2022/08/28 02:50:23;;;;;;;11.57;5.00;;;;;;;;;;5083466;28;20439;-81
2022/08/28 02:52:50;;;;;;;11.48;5.93;;;;;;;;;;5083735;28;20500;-82
2022/08/28 02:55:17;;;;;;;14.17;6.00;;;;;;;;;;5084009;28;20450;-80
2022/08/28 02:57:44;;;;;;;11.90;5.38;;;;;;;;;;5086422;28;20410;-78
2022/08/28 03:00:13;;;;;;;11.68;5.70;;;;;;;;;;5086731;28;20443;-79
2022/08/28 03:02:39;;;;;;;12.52;5.65;;;;;;;;;;5085448;28;20481;-79
2022/08/28 03:05:06;;;;;;;11.77;4.85;;;;;;;;;;5064274;28;20417;-82
2022/08/28 03:07:34;;;;;;;12.10;5.10;;;;;;;;;;5084768;28;20427;-79
2022/08/28 03:10:01;;;;;;;10.55;4.90;;;;;;;;;;5083349;28;20924;-79
2022/08/28 03:12:29;;;;;;;9.57;4.77;;;;;;;;;;5086106;28;20939;-78
2022/08/28 03:14:57;;;;;;;11.40;5.10;;;;;;;;;;5086293;28;20443;-79
2022/08/28 03:17:23;;;;;;;9.05;4.90;;;;;;;;;;5084377;28;20442;-79
2022/08/28 03:19:49;;;;;;;12.20;4.20;;;;;;;;;;5085528;28;20438;-79
2022/08/28 03:23:24;;;;;;;11.90;4.90;;;;;;;;;;5083509;28;20833;-80
2022/08/28 03:25:08;;;;;;;12.38;4.53;;;;;;;;;;5081454;28;20515;-79
2022/08/28 03:27:34;;;;;;;14.23;5.10;;;;;;;;;;5085107;28;20428;-81
2022/08/28 03:30:01;;;;;;;13.20;5.07;;;;;;;;;;5084554;28;20446;-80
2022/08/28 03:32:27;;;;;;;11.18;4.75;;;;;;;;;;5083507;28;20412;-80
2022/08/28 03:34:54;;;;;;;8.48;4.43;;;;;;;;;;5069312;28;20436;-80
2022/08/28 03:37:21;;;;;;;8.32;4.97;;;;;;;;;;5081957;28;20513;-80
2022/08/28 03:39:48;;;;;;;9.10;4.40;;;;;;;;;;5084068;28;20469;-80
2022/08/28 03:42:16;;;;;;;11.25;4.53;;;;;;;;;;5080205;28;21295;-80
2022/08/28 03:44:42;;;;;;;9.38;4.30;;;;;;;;;;5084163;28;20537;-81
2022/08/28 03:47:11;;;;;;;8.38;4.00;;;;;;;;;;5080983;28;20429;-81
2022/08/28 03:49:37;;;;;;;7.80;4.10;;;;;;;;;;5083747;28;20469;-80
2022/08/28 03:52:04;;;;;;;9.45;4.07;;;;;;;;;;5083823;28;20407;-79
2022/08/28 03:54:31;;;;;;;10.00;4.15;;;;;;;;;;5084392;28;20432;-79
2022/08/28 03:56:57;;;;;;;8.80;4.10;;;;;;;;;;5083173;28;20410;-80
2022/08/28 03:59:25;;;;;;;7.50;4.10;;;;;;;;;;5084469;28;20442;-79
2022/08/28 04:01:53;;;;;;;9.43;4.67;;;;;;;;;;5080689;28;20524;-79
2022/08/28 04:04:20;;;;;;;12.13;4.95;;;;;;;;;;5068328;28;20525;-79
2022/08/28 04:06:46;;;;;;;13.02;4.40;;;;;;;;;;5084150;28;20803;-79
2022/08/28 04:09:13;;;;;;;9.98;4.22;;;;;;;;;;5083816;28;20439;-79
2022/08/28 04:11:41;;;;;;;11.15;4.80;;;;;;;;;;5081861;28;20410;-80
2022/08/28 04:14:08;;;;;;;9.82;4.40;;;;;;;;;;5080504;28;20443;-80
2022/08/28 04:16:36;;;;;;;12.00;4.57;;;;;;;;;;5081606;28;20410;-79
2022/08/28 04:19:02;;;;;;;10.13;5.00;;;;;;;;;;5084091;28;21473;-79
2022/08/28 04:21:31;;;;;;;9.68;4.90;;;;;;;;;;5083884;28;20414;-79
2022/08/28 04:23:57;;;;;;;14.15;5.72;;;;;;;;;;5082928;28;20426;-80
2022/08/28 04:26:24;;;;;;;12.20;5.40;;;;;;;;;;5081060;28;20410;-79
2022/08/28 04:28:51;;;;;;;12.32;4.88;;;;;;;;;;5084355;28;20421;-79
2022/08/28 04:31:18;;;;;;;10.43;5.20;;;;;;;;;;5082547;28;20467;-80
2022/08/28 04:33:46;;;;;;;11.77;5.30;;;;;;;;;;5079289;28;20433;-80
2022/08/28 04:36:14;;;;;;;8.95;4.68;;;;;;;;;;5081347;28;20448;-80
2022/08/28 04:38:42;;;;;;;11.48;4.90;;;;;;;;;;5081104;28;20428;-80
2022/08/28 04:41:10;;;;;;;11.87;5.10;;;;;;;;;;5081688;28;20441;-80
2022/08/28 04:43:36;;;;;;;11.70;4.90;;;;;;;;;;5082512;28;20976;-82
2022/08/28 04:46:05;;;;;;;11.30;4.68;;;;;;;;;;5079965;28;20434;-83
2022/08/28 04:48:32;;;;;;;11.27;4.32;;;;;;;;;;5077218;28;20513;-79
2022/08/28 04:51:00;;;;;;;8.43;4.10;;;;;;;;;;5067335;28;20417;-79
2022/08/28 04:53:27;;;;;;;9.77;4.20;;;;;;;;;;5081729;28;20436;-78
2022/08/28 04:55:54;;;;;;;9.13;4.30;;;;;;;;;;5083860;28;20514;-81
2022/08/28 04:58:21;;;;;;;8.90;4.30;;;;;;;;;;5083662;28;20428;-78
2022/08/28 05:00:48;;;;;;;14.38;4.20;;;;;;;;;;5081147;28;20423;-80
2022/08/28 05:03:16;;;;;;;13.97;5.37;;;;;;;;;;5081535;28;20781;-79
2022/08/28 05:05:43;;;;;;;12.27;4.97;;;;;;;;;;5081245;28;20424;-79
2022/08/28 05:08:11;;;;;;;8.95;4.22;;;;;;;;;;5066455;28;20462;-81
2022/08/28 05:10:39;;;;;;;9.47;4.13;;;;;;;;;;5067998;28;20418;-80
2022/08/28 05:13:05;;;;;;;10.27;4.30;;;;;;;;;;5080110;28;20445;-81
2022/08/28 05:15:32;;;;;;;9.48;4.43;;;;;;;;;;5079728;28;20427;-79
2022/08/28 05:17:58;;;;;;;11.00;4.50;;;;;;;;;;5064790;28;20932;-80
2022/08/28 05:20:25;;;;;;;10.63;4.45;;;;;;;;;;5066475;28;20438;-79
2022/08/28 05:22:51;;;;;;;10.68;4.30;;;;;;;;;;5079154;28;20424;-79
2022/08/28 05:25:19;;;;;;;9.07;4.03;;;;;;;;;;5077439;28;20425;-79
2022/08/28 05:27:46;;;;;;;13.80;4.60;;;;;;;;;;5078242;28;20424;-80
2022/08/28 05:30:13;;;;;;;11.55;4.60;;;;;;;;;;5084167;28;20410;-80
2022/08/28 05:32:42;;;;;;;10.85;4.43;;;;;;;;;;5081813;28;20929;-80
2022/08/28 05:35:08;;;;;;;12.88;4.30;;;;;;;;;;5082413;28;20506;-80
2022/08/28 05:37:35;;;;;;;13.40;4.70;;;;;;;;;;5081336;28;20414;-80
2022/08/28 05:40:01;;;;;;;11.68;4.57;;;;;;;;;;5080240;28;20501;-82
2022/08/28 05:42:29;;;;;;;10.30;4.20;;;;;;;;;;5081827;28;20422;-79
2022/08/28 05:44:57;;;;;;;10.13;4.60;;;;;;;;;;5064546;28;20837;-79
2022/08/28 05:47:24;;;;;;;11.13;4.33;;;;;;;;;;5080631;28;20439;-79
2022/08/28 05:49:51;;;;;;;11.88;4.97;;;;;;;;;;5081654;28;20434;-81
2022/08/28 05:52:18;;;;;;;9.30;4.17;;;;;;;;;;5063225;28;20427;-78
2022/08/28 05:54:44;;;;;;;13.55;4.22;;;;;;;;;;5079998;28;20433;-79
2022/08/28 05:57:11;;;;;;;9.43;4.40;;;;;;;;;;5075791;28;20415;-78
2022/08/28 05:59:38;;;;;;;15.15;5.15;;;;;;;;;;5076971;28;20506;-81
2022/08/28 06:02:05;;;;;;;8.77;3.92;;;;;;;;;;5079217;28;20417;-80
2022/08/28 06:04:31;;;;;;;7.57;4.00;;;;;;;;;;5077851;28;20437;-79
2022/08/28 06:06:58;;;;;;;14.87;4.73;;;;;;;;;;5079131;28;20433;-80
2022/08/28 06:09:25;;;;;;;11.73;3.95;;;;;;;;;;5082920;28;20442;-79
2022/08/28 06:11:53;;;;;;;8.02;4.00;;;;;;;;;;5085330;28;21098;-80
2022/08/28 06:14:20;;;;;;;10.50;4.00;;;;;;;;;;5086794;28;20438;-79
2022/08/28 06:16:48;;;;;;;13.40;4.33;;;;;;;;;;5082443;28;20927;-80
2022/08/28 06:19:16;;;;;;;9.52;3.30;;;;;;;;;;5083331;28;20803;-83
2022/08/28 06:21:43;;;;;;;10.18;3.53;;;;;;;;;;5084271;28;20418;-80
2022/08/28 06:24:10;;;;;;;12.50;3.88;;;;;;;;;;5082196;28;20780;-80
2022/08/28 06:26:39;;;;;;;10.00;4.00;;;;;;;;;;5080978;28;20422;-80
2022/08/28 06:29:06;;;;;;;10.48;4.15;;;;;;;;;;5070812;28;20427;-79
2022/08/28 06:31:33;;;;;;;10.45;3.65;;;;;;;;;;5070254;28;20434;-80
2022/08/28 06:34:01;;;;;;;10.15;3.75;;;;;;;;;;5082351;28;20434;-78
2022/08/28 06:36:30;;;;;;;9.20;3.72;;;;;;;;;;5086963;28;20414;-79
2022/08/28 06:38:58;;;;;;;7.13;3.35;;;;;;;;;;5084353;28;20430;-78
2022/08/28 06:41:26;;;;;;;10.48;3.50;;;;;;;;;;5080217;28;20435;-78
2022/08/28 06:43:52;;;;;;;13.50;3.85;;;;;;;;;;5084989;28;20435;-80
2022/08/28 06:46:19;;;;;;;9.25;4.10;;;;;;;;;;5082465;28;20400;-80
2022/08/28 06:48:45;;;;;;;7.65;3.30;;;;;;;;;;5069012;28;20430;-80
2022/08/28 06:51:14;;;;;;;11.40;4.10;;;;;;;;;;5081292;28;20427;-79
2022/08/28 06:53:41;;;;;;;8.73;3.85;;;;;;;;;;5066074;28;20972;-79
2022/08/28 06:56:08;;;;;;;8.40;3.30;;;;;;;;;;5083722;28;20414;-79
2022/08/28 06:58:36;;;;;;;10.57;4.07;;;;;;;;;;5079005;28;20419;-80
2022/08/28 07:01:03;;;;;;;10.38;3.97;;;;;;;;;;5080387;28;20462;-79
2022/08/28 07:03:30;;;;;;;12.43;3.58;;;;;;;;;;5077830;28;20425;-80
2022/08/28 07:05:57;;;;;;;10.30;3.60;;;;;;;;;;5079743;28;20986;-78
2022/08/28 07:08:25;;;;;;;9.73;3.72;;;;;;;;;;5080143;28;20431;-80
2022/08/28 07:10:52;;;;;;;13.95;3.80;;;;;;;;;;5079783;28;20433;-80
2022/08/28 07:13:19;;;;;;;11.30;3.13;;;;;;;;;;5082517;28;20433;-79
2022/08/28 07:15:46;;;;;;;10.73;3.95;;;;;;;;;;5086216;28;20489;-80
2022/08/28 07:18:12;;;;;;;8.98;3.50;;;;;;;;;;5067042;28;20419;-82
2022/08/28 07:20:39;;;;;;;8.85;3.63;;;;;;;;;;5083318;28;20435;-79
2022/08/28 07:23:06;;;;;;;9.40;3.50;;;;;;;;;;5084471;28;20426;-80
2022/08/28 07:25:35;;;;;;;9.30;3.60;;;;;;;;;;5083385;28;20436;-80
2022/08/28 07:28:01;;;;;;;11.52;3.25;;;;;;;;;;5082557;28;20572;-79
2022/08/28 07:30:28;;;;;;;7.53;3.20;;;;;;;;;;5084322;28;20418;-79
2022/08/28 07:32:56;;;;;;;9.60;3.50;;;;;;;;;;5081871;28;20433;-80
2022/08/28 07:35:22;;;;;;;9.43;3.20;;;;;;;;;;5067304;28;20423;-79
2022/08/28 07:37:49;;;;;;;8.85;3.75;;;;;;;;;;5079804;28;20510;-80
2022/08/28 07:40:17;;;;;;;9.23;3.15;;;;;;;;;;5081087;28;20431;-79
2022/08/28 07:45:29;;;;;;;12.50;3.50;;;;;;;;;;5084005;28;20422;-80
2022/08/28 07:47:57;;;;;;;6.93;3.33;;;;;;;;;;5078114;28;20423;-80
2022/08/28 07:50:23;;;;;;;9.75;3.40;;;;;;;;;;5084402;28;20415;-79
2022/08/28 07:52:50;;;;;;;7.80;3.90;;;;;;;;;;5078031;28;20925;-79
2022/08/28 07:55:16;;;;;;;9.15;3.33;;;;;;;;;;5079874;28;20427;-79
2022/08/28 07:57:43;;;;;;;9.05;3.40;;;;;;;;;;5076042;28;20425;-79
2022/08/28 08:00:13;;;;;;;6.07;3.00;;;;;;;;;;5080898;28;20517;-80
2022/08/28 08:02:40;;;;;;;11.05;3.03;;;;;;;;;;5081020;28;21044;-79
2022/08/28 08:05:09;;;;;;;8.13;3.10;;;;;;;;;;5081849;28;20430;-80
2022/08/28 08:07:38;;;;;;;5.13;2.70;;;;;;;;;;5079976;28;20429;-80
2022/08/28 08:10:05;;;;;;;8.77;3.20;;;;;;;;;;5082544;28;20421;-82
2022/08/28 08:12:33;;;;;;;13.02;3.00;;;;;;;;;;5082529;28;20809;-81
2022/08/28 08:14:59;;;;;;;8.23;2.80;;;;;;;;;;5081326;28;20438;-82
2022/08/28 08:17:27;;;;;;;7.00;3.33;;;;;;;;;;5083765;28;20434;-80
2022/08/28 08:19:54;;;;;;;7.82;3.22;;;;;;;;;;5082029;28;20457;-80
2022/08/28 08:22:20;;;;;;;6.32;2.97;;;;;;;;;;5080927;28;20473;-80
2022/08/28 08:24:47;;;;;;;9.32;3.33;;;;;;;;;;5082549;28;20516;-79
2022/08/28 08:27:16;;;;;;;7.88;3.30;;;;;;;;;;5081198;28;20449;-80
2022/08/28 08:29:42;;;;;;;7.50;2.83;;;;;;;;;;5081315;28;20427;-79
2022/08/28 08:32:10;;;;;;;8.00;2.80;;;;;;;;;;5081986;28;20815;-79
2022/08/28 08:34:39;;;;;;;5.38;2.33;;;;;;;;;;5077469;28;20436;-79
2022/08/28 08:37:06;;;;;;;8.40;2.40;;;;;;;;;;5080394;28;20948;-79
2022/08/28 08:39:33;;;;;;;5.32;2.20;;;;;;;;;;5082685;28;20407;-79
2022/08/28 08:42:00;;;;;;;6.43;2.50;;;;;;;;;;5079750;28;20413;-80
2022/08/28 08:44:29;;;;;;;5.35;2.50;;;;;;;;;;5081239;28;20438;-79
2022/08/28 08:47:01;;;;;;;7.15;2.65;;;;;;;;;;5084493;27;20423;-79
2022/08/28 08:49:29;;;;;;;8.82;2.80;;;;;;;;;;5094077;27;20433;-80
2022/08/28 08:52:05;;;;;;;6.95;2.78;;;;;;;;;;5080528;28;20828;-80
2022/08/28 08:54:31;;;;;;;7.50;2.53;;;;;;;;;;5081535;28;20434;-79
2022/08/28 08:57:00;;;;;;;8.38;2.92;;;;;;;;;;5079773;28;20420;-79
2022/08/28 08:59:30;;;;;;;6.30;2.63;;;;;;;;;;5082758;28;20426;-81
2022/08/28 09:02:01;;;;;;;5.63;2.90;;;;;;;;;;5080256;28;20424;-81
2022/08/28 09:04:35;;;;;;;4.32;2.70;;;;;;;;;;5080650;28;20513;-79
2022/08/28 09:07:09;;;;;;;6.15;2.33;;;;;;;;;;5079709;28;20932;-79
2022/08/28 09:09:37;;;;;;;7.00;2.90;;;;;;;;;;5083226;28;20426;-80
2022/08/28 09:12:05;;;;;;;6.82;2.83;;;;;;;;;;5063865;28;20415;-80
2022/08/28 09:14:37;;;;;;;5.53;2.80;;;;;;;;;;5086269;28;20416;-80
2022/08/28 09:17:05;;;;;;;8.52;2.38;;;;;;;;;;5078340;28;20422;-80
2022/08/28 09:19:32;;;;;;;10.18;2.95;;;;;;;;;;5081989;28;20502;-79
2022/08/28 09:21:58;;;;;;;7.18;2.80;;;;;;;;;;5082359;28;20414;-79
2022/08/28 09:24:28;;;;;;;5.85;2.70;;;;;;;;;;5079190;28;20436;-79
2022/08/28 09:26:57;;;;;;;6.63;2.83;;;;;;;;;;5063201;28;20542;-80
2022/08/28 09:29:27;;;;;;;6.35;2.80;;;;;;;;;;5083020;28;20447;-80
2022/08/28 09:31:54;;;;;;;6.80;2.63;;;;;;;;;;5080640;28;20417;-80
2022/08/28 09:34:31;;;;;;;8.50;3.20;;;;;;;;;;5065186;28;20417;-80
2022/08/28 09:36:58;;;;;;;7.72;3.25;;;;;;;;;;5078002;28;20418;-81
2022/08/28 09:39:27;;;;;;;8.07;3.00;;;;;;;;;;5082929;28;20421;-81
2022/08/28 09:44:48;;;;;;;8.52;3.33;;;;;;;;;;5082696;28;20887;-80
2022/08/28 09:47:29;;;;;;;8.13;2.90;;;;;;;;;;5077189;28;20457;-81
2022/08/28 09:49:55;;;;;;;8.25;2.90;;;;;;;;;;5082287;28;20429;-80
2022/08/28 09:52:23;;;;;;;8.97;3.70;;;;;;;;;;5081139;28;20423;-79
2022/08/28 09:54:51;;;;;;;8.63;3.50;;;;;;;;;;5076497;28;20518;-80
2022/08/28 09:57:17;;;;;;;8.30;3.20;;;;;;;;;;5081615;28;20422;-80
2022/08/28 09:59:45;;;;;;;11.65;3.30;;;;;;;;;;5077709;28;20434;-80
2022/08/28 10:02:21;;;;;;;7.55;3.10;;;;;;;;;;5080200;28;20495;-80
2022/08/28 10:04:56;;;;;;;7.63;3.10;;;;;;;;;;5079107;28;20494;-80
2022/08/28 10:07:27;;;;;;;7.32;3.10;;;;;;;;;;5078507;28;20413;-80
2022/08/28 10:10:00;;;;;;;10.40;3.33;;;;;;;;;;5082112;28;20436;-79
2022/08/28 10:12:32;;;;;;;8.90;3.40;;;;;;;;;;5079815;28;20423;-80
2022/08/28 10:15:03;;;;;;;7.43;2.90;;;;;;;;;;5080317;28;20429;-79
2022/08/28 10:17:35;;;;;;;6.90;2.88;;;;;;;;;;5078072;28;20430;-79
2022/08/28 10:20:04;;;;;;;8.70;3.05;;;;;;;;;;5078550;28;21924;-79
2022/08/28 10:22:36;;;;;;;5.75;2.90;;;;;;;;;;5077579;28;21006;-78
2022/08/28 10:25:10;;;;;;;8.32;3.30;;;;;;;;;;5071502;28;20427;-81
2022/08/28 10:27:48;;;;;;;9.38;2.88;;;;;;;;;;5075982;28;20431;-80
2022/08/28 10:30:16;;;;;;;8.85;3.00;;;;;;;;;;5077611;28;20430;-80
2022/08/28 10:32:48;;;;;;;7.45;2.92;;;;;;;;;;5077062;28;20427;-81
2022/08/28 10:35:18;;;;;;;8.68;3.30;;;;;;;;;;5063972;28;20432;-80
2022/08/28 10:37:52;;;;;;;6.90;3.20;;;;;;;;;;5081762;28;20477;-80
2022/08/28 10:40:24;;;;;;;7.00;3.05;;;;;;;;;;5081829;28;20828;-80
2022/08/28 10:42:53;;;;;;;5.85;2.90;;;;;;;;;;5081660;28;20425;-81
2022/08/28 10:45:23;;;;;;;8.32;3.55;;;;;;;;;;5082337;28;20486;-81
2022/08/28 10:47:52;;;;;;;6.85;3.20;;;;;;;;;;5078526;28;20976;-81
2022/08/28 10:50:21;;;;;;;9.00;3.60;;;;;;;;;;5082837;28;20421;-83
2022/08/28 10:52:48;;;;;;;6.70;3.30;;;;;;;;;;5083679;28;20412;-81
2022/08/28 10:55:18;;;;;;;6.22;2.88;;;;;;;;;;5084989;28;20418;-79
2022/08/28 10:57:49;;;;;;;5.75;3.20;;;;;;;;;;5083413;28;20424;-80
2022/08/28 11:00:17;;;;;;;8.18;3.20;;;;;;;;;;5084839;28;20418;-82
2022/08/28 11:02:45;;;;;;;5.80;3.05;;;;;;;;;;5082534;28;20423;-80
2022/08/28 11:05:12;;;;;;;6.85;3.28;;;;;;;;;;5085825;28;20412;-82
2022/08/28 11:07:41;;;;;;;9.30;3.60;;;;;;;;;;5081609;28;20517;-80
2022/08/28 11:10:27;;;;;;;8.93;3.63;;;;;;;;;;5084438;28;20422;-81
2022/08/28 11:12:55;;;;;;;6.10;3.40;;;;;;;;;;5082997;28;20417;-80
2022/08/28 11:15:36;;;;;;;9.27;3.70;;;;;;;;;;5085479;28;20434;-81
2022/08/28 11:18:18;;;;;;;8.90;3.67;;;;;;;;;;5079837;28;20408;-80
2022/08/28 11:20:54;;;;;;;7.55;3.40;;;;;;;;;;5066951;28;20417;-80
2022/08/28 11:23:24;;;;;;;9.77;3.67;;;;;;;;;;5065709;28;20513;-80
2022/08/28 11:25:53;;;;;;;7.07;3.75;;;;;;;;;;5082353;28;20886;-79
2022/08/28 11:28:38;;;;;;;7.97;3.92;;;;;;;;;;5083425;28;20464;-79
2022/08/28 11:31:22;;;;;;;8.85;3.90;;;;;;;;;;5081174;28;20429;-79
2022/08/28 11:33:51;;;;;;;10.23;4.20;;;;;;;;;;5085007;28;20411;-82
2022/08/28 11:36:36;;;;;;;8.63;4.30;;;;;;;;;;5082381;28;20463;-79
2022/08/28 11:39:05;;;;;;;10.25;3.85;;;;;;;;;;5083848;28;20411;-80
2022/08/28 11:41:32;;;;;;;8.80;3.80;;;;;;;;;;5080413;28;20422;-80
2022/08/28 11:44:24;;;;;;;7.78;3.90;;;;;;;;;;5085235;28;20417;-80
2022/08/28 11:46:51;;;;;;;8.40;4.13;;;;;;;;;;5083785;28;20474;-80
2022/08/28 11:49:36;;;;;;;6.65;3.35;;;;;;;;;;5077891;28;20431;-80
2022/08/28 11:52:05;;;;;;;8.05;3.58;;;;;;;;;;5084014;28;20454;-80
2022/08/28 11:54:40;;;;;;;6.25;2.83;;;;;;;;;;5084248;28;20524;-80
2022/08/28 11:57:10;;;;;;;10.20;3.83;;;;;;;;;;5083019;28;20422;-80
2022/08/28 11:59:43;;;;;;;8.00;3.78;;;;;;;;;;5083005;28;20485;-79
2022/08/28 12:02:28;;;;;;;9.38;4.32;;;;;;;;;;5082309;28;20428;-81
2022/08/28 12:04:54;;;;;;;7.40;4.70;;;;;;;;;;5082103;28;20816;-78
2022/08/28 12:07:22;;;;;;;10.65;4.53;;;;;;;;;;5084868;28;20783;-81
2022/08/28 12:09:49;;;;;;;9.82;4.70;;;;;;;;;;5077733;28;20468;-81
2022/08/28 12:12:40;;;;;;;11.23;5.00;;;;;;;;;;5080000;28;20454;-80
2022/08/28 12:15:32;;;;;;;11.38;5.20;;;;;;;;;;5062906;28;20447;-81
2022/08/28 12:17:59;;;;;;;8.38;4.90;;;;;;;;;;5080489;28;20458;-79
2022/08/28 12:20:31;;;;;;;11.87;5.40;;;;;;;;;;5083395;28;20420;-80
2022/08/28 12:22:59;;;;;;;12.55;5.43;;;;;;;;;;5081628;28;20431;-80
2022/08/28 12:25:30;;;;;;;9.07;5.07;;;;;;;;;;5081987;28;20431;-81
2022/08/28 12:27:58;;;;;;;8.40;5.03;;;;;;;;;;5083431;28;20437;-82
2022/08/28 12:30:31;;;;;;;9.67;5.30;;;;;;;;;;5085216;28;20433;-80
2022/08/28 12:33:03;;;;;;;8.65;5.40;;;;;;;;;;5080467;28;20457;-81
2022/08/28 12:35:30;;;;;;;12.23;6.20;;;;;;;;;;5082827;28;20537;-82
2022/08/28 12:38:01;;;;;;;10.02;5.68;;;;;;;;;;5080962;28;20427;-80
2022/08/28 12:40:28;;;;;;;10.50;6.03;;;;;;;;;;5079695;28;20433;-81
2022/08/28 12:42:57;;;;;;;10.50;5.80;;;;;;;;;;5080034;28;20435;-82
2022/08/28 12:45:25;;;;;;;9.30;5.53;;;;;;;;;;5080130;28;20477;-81
2022/08/28 12:47:55;;;;;;;7.20;4.60;;;;;;;;;;5077921;28;20431;-79
2022/08/28 12:50:25;;;;;;;11.23;5.45;;;;;;;;;;5081955;28;20437;-82
2022/08/28 12:52:52;;;;;;;7.78;5.32;;;;;;;;;;5078136;28;20425;-80
2022/08/28 12:55:19;;;;;;;10.70;6.13;;;;;;;;;;5079449;28;20440;-80
2022/08/28 12:57:46;;;;;;;10.32;5.50;;;;;;;;;;5079761;28;20429;-80
2022/08/28 13:00:17;;;;;;;10.55;5.70;;;;;;;;;;5080843;28;20481;-80
2022/08/28 13:02:43;;;;;;;9.75;5.50;;;;;;;;;;5082533;28;20462;-81
2022/08/28 13:05:22;;;;;;;9.75;6.05;;;;;;;;;;5079667;28;21228;-80
2022/08/28 13:07:49;;;;;;;10.43;5.50;;;;;;;;;;5079907;28;20956;-80
2022/08/28 13:10:19;;;;;;;10.70;5.88;;;;;;;;;;5079934;28;20423;-80
2022/08/28 13:12:51;;;;;;;10.95;6.10;;;;;;;;;;5079788;28;20803;-79
2022/08/28 13:15:32;;;;;;;10.52;5.65;;;;;;;;;;5082649;28;21193;-80
2022/08/28 13:18:00;;;;;;;11.73;5.63;;;;;;;;;;5078724;28;20462;-81
2022/08/28 13:20:29;;;;;;;11.07;5.60;;;;;;;;;;5082611;28;20427;-81
2022/08/28 13:22:57;;;;;;;11.37;6.13;;;;;;;;;;5080962;28;20456;-82
2022/08/28 13:25:25;;;;;;;8.00;5.20;;;;;;;;;;5080792;28;20438;-80
2022/08/28 13:27:58;;;;;;;12.53;5.80;;;;;;;;;;5079911;28;20428;-81
2022/08/28 13:30:26;;;;;;;10.77;5.30;;;;;;;;;;5079234;28;20421;-82
2022/08/28 13:32:57;;;;;;;9.43;5.50;;;;;;;;;;5082001;28;20425;-81
2022/08/28 13:35:41;;;;;;;11.90;5.60;;;;;;;;;;5080066;28;20433;-82
2022/08/28 13:38:10;;;;;;;9.73;4.90;;;;;;;;;;5082029;28;20423;-81
2022/08/28 13:40:43;;;;;;;10.00;4.90;;;;;;;;;;5080794;28;20423;-81
2022/08/28 13:43:10;;;;;;;9.38;5.18;;;;;;;;;;5082538;28;20473;-80
2022/08/28 13:45:37;;;;;;;11.07;5.50;;;;;;;;;;5078322;28;20434;-79
2022/08/28 13:48:04;;;;;;;9.80;4.97;;;;;;;;;;5079255;28;20431;-81
2022/08/28 13:50:32;;;;;;;11.27;5.38;;;;;;;;;;5082788;28;20435;-80
2022/08/28 13:53:00;;;;;;;11.48;5.70;;;;;;;;;;5081813;28;20475;-80
2022/08/28 13:55:26;;;;;;;9.87;4.87;;;;;;;;;;5080937;28;20451;-80
2022/08/28 13:57:53;;;;;;;10.23;4.93;;;;;;;;;;5076209;28;20418;-80
2022/08/28 14:00:19;;;;;;;9.95;4.80;;;;;;;;;;5064154;28;20433;-81
2022/08/28 14:05:29;;;;;;;11.57;5.30;;;;;;;;;;5080651;28;20466;-81
2022/08/28 14:07:55;;;;;;;11.13;5.35;;;;;;;;;;5082525;28;20439;-81
2022/08/28 14:10:24;;;;;;;8.23;4.75;;;;;;;;;;5080104;28;20426;-81
2022/08/28 14:12:50;;;;;;;9.47;4.80;;;;;;;;;;5080476;28;20452;-81
2022/08/28 14:15:17;;;;;;;7.65;4.15;;;;;;;;;;5077549;28;20440;-80
2022/08/28 14:17:44;;;;;;;6.75;4.63;;;;;;;;;;5080228;28;20427;-81
2022/08/28 14:20:12;;;;;;;8.63;4.20;;;;;;;;;;5080137;28;20924;-81
2022/08/28 14:22:39;;;;;;;8.40;4.57;;;;;;;;;;5080307;28;20426;-80
2022/08/28 14:25:05;;;;;;;12.35;5.60;;;;;;;;;;5061996;28;20415;-81
2022/08/28 14:27:33;;;;;;;8.90;4.65;;;;;;;;;;5078802;28;20431;-80
2022/08/28 14:30:00;;;;;;;7.72;4.10;;;;;;;;;;5082125;28;20427;-81
2022/08/28 14:32:26;;;;;;;9.37;4.87;;;;;;;;;;5083730;28;20422;-80
2022/08/28 14:34:53;;;;;;;10.07;4.70;;;;;;;;;;5082021;28;20422;-81
2022/08/28 14:37:20;;;;;;;8.75;4.72;;;;;;;;;;5084847;28;20511;-82
2022/08/28 14:39:46;;;;;;;8.82;5.07;;;;;;;;;;5085657;28;20838;-81
2022/08/28 14:42:13;;;;;;;10.90;5.30;;;;;;;;;;5081642;28;20437;-80
2022/08/28 14:44:40;;;;;;;8.18;5.07;;;;;;;;;;5084423;28;22184;-81
2022/08/28 14:47:07;;;;;;;9.90;5.15;;;;;;;;;;5082319;28;20426;-80
2022/08/28 14:49:33;;;;;;;11.45;5.22;;;;;;;;;;5082852;28;20428;-79
2022/08/28 14:52:00;;;;;;;12.50;5.40;;;;;;;;;;5084350;28;20414;-81
2022/08/28 14:54:27;;;;;;;10.32;5.47;;;;;;;;;;5085614;28;20905;-82